Station Historical Data
Daily Summary for January 14, 2018 Units:  Both    English   Metric
« Previous Day
Next Day »
Daily Weekly Monthly Yearly Custom
  High: Low: Average:
Temperature: 25.2 °F /  -3.8 °C 15.4 °F /  -9.2 °C 20.4 °F /  -6.4 °C
Dew Point: 9.7 °F /  -12.4 °C 5.0 °F /  -15 °C 6.9 °F /  -13.9 °C
Humidity: 65 % 44 % 56 %
Wind Speed: 8.0 mph /  12.9 km/h - 1.9 mph /  3.1 km/h
Wind Gust: 13.0 mph /  20.9 km/h - -
Wind:- - WSW
Pressure: 30.74 in /  1040.9 hPa 30.53 in /  1033.7 hPa -
Precipitation: 0.00 in /  0 mm    
Historical Graphs
 
 
Tabular Data for January 14, 2018
Time Temperature Dew Point Pressure Wind Wind Speed Wind Gust Humidity Rainfall Rate (Hourly)
00:00 21.4 °F /  -5.9 °C 9.7 °F /  -12.4 °C 30.53 in /  1033.7 hPa West 4.0 mph /  6.4 km/h 7.0 mph /  11.3 km/h 60 % 0.00 in /  0 mm
00:08 21.3 °F /  -5.9 °C 9.6 °F /  -12.4 °C 30.53 in /  1033.7 hPa Calm   7.0 mph /  11.3 km/h 60 % 0.00 in /  0 mm
00:38 20.8 °F /  -6.2 °C 8.7 °F /  -12.9 °C 30.54 in /  1034.1 hPa North 4.0 mph /  6.4 km/h 9.0 mph /  14.5 km/h 59 % 0.00 in /  0 mm
00:44 20.7 °F /  -6.3 °C 9.0 °F /  -12.8 °C 30.54 in /  1034.1 hPa WSW 1.0 mph /  1.6 km/h 9.0 mph /  14.5 km/h 60 % 0.00 in /  0 mm
00:51 20.6 °F /  -6.3 °C 8.6 °F /  -13 °C 30.54 in /  1034.1 hPa North 4.0 mph /  6.4 km/h 10.0 mph /  16.1 km/h 59 % 0.00 in /  0 mm
00:59 20.4 °F /  -6.4 °C 8.4 °F /  -13.1 °C 30.54 in /  1034.1 hPa WNW 6.0 mph /  9.7 km/h 10.0 mph /  16.1 km/h 59 % 0.00 in /  0 mm
01:05 20.3 °F /  -6.5 °C 8.7 °F /  -12.9 °C 30.54 in /  1034.1 hPa Calm   10.0 mph /  16.1 km/h 60 % 0.00 in /  0 mm
01:13 20.2 °F /  -6.6 °C 8.6 °F /  -13 °C 30.55 in /  1034.4 hPa Calm   10.0 mph /  16.1 km/h 60 % 0.00 in /  0 mm
01:21 20.0 °F /  -6.7 °C 8.0 °F /  -13.3 °C 30.55 in /  1034.4 hPa NNE 2.0 mph /  3.2 km/h 11.0 mph /  17.7 km/h 59 % 0.00 in /  0 mm
01:28 19.8 °F /  -6.8 °C 8.2 °F /  -13.2 °C 30.56 in /  1034.8 hPa West 3.0 mph /  4.8 km/h 11.0 mph /  17.7 km/h 60 % 0.00 in /  0 mm
01:37 19.6 °F /  -6.9 °C 8.0 °F /  -13.3 °C 30.56 in /  1034.8 hPa NNE 3.0 mph /  4.8 km/h 11.0 mph /  17.7 km/h 60 % 0.00 in /  0 mm
02:15 19.1 °F /  -7.2 °C 7.5 °F /  -13.6 °C 30.58 in /  1035.4 hPa WNW 3.0 mph /  4.8 km/h 9.0 mph /  14.5 km/h 60 % 0.00 in /  0 mm
02:29 18.8 °F /  -7.3 °C 7.2 °F /  -13.8 °C 30.58 in /  1035.4 hPa WNW 1.0 mph /  1.6 km/h 9.0 mph /  14.5 km/h 60 % 0.00 in /  0 mm
02:36 18.7 °F /  -7.4 °C 7.1 °F /  -13.8 °C 30.58 in /  1035.4 hPa NW 4.0 mph /  6.4 km/h 9.0 mph /  14.5 km/h 60 % 0.00 in /  0 mm
02:44 18.6 °F /  -7.4 °C 7.0 °F /  -13.9 °C 30.58 in /  1035.4 hPa West 4.0 mph /  6.4 km/h 9.0 mph /  14.5 km/h 60 % 0.00 in /  0 mm
02:57 18.4 °F /  -7.6 °C 6.9 °F /  -13.9 °C 30.59 in /  1035.8 hPa WNW 5.0 mph /  8 km/h 9.0 mph /  14.5 km/h 60 % 0.00 in /  0 mm
03:11 18.2 °F /  -7.7 °C 6.7 °F /  -14.1 °C 30.59 in /  1035.8 hPa North 2.0 mph /  3.2 km/h 10.0 mph /  16.1 km/h 60 % 0.00 in /  0 mm
03:19 18.1 °F /  -7.7 °C 6.6 °F /  -14.1 °C 30.59 in /  1035.8 hPa WNW 3.0 mph /  4.8 km/h 10.0 mph /  16.1 km/h 60 % 0.00 in /  0 mm
03:24 18.0 °F /  -7.8 °C 6.8 °F /  -14 °C 30.59 in /  1035.8 hPa NNE 4.0 mph /  6.4 km/h 9.0 mph /  14.5 km/h 61 % 0.00 in /  0 mm
04:01 17.6 °F /  -8 °C 6.5 °F /  -14.2 °C 30.60 in /  1036.1 hPa NW 3.0 mph /  4.8 km/h 10.0 mph /  16.1 km/h 61 % 0.00 in /  0 mm
04:23 17.3 °F /  -8.2 °C 6.5 °F /  -14.2 °C 30.60 in /  1036.1 hPa NW 5.0 mph /  8 km/h 13.0 mph /  20.9 km/h 62 % 0.00 in /  0 mm
04:31 17.1 °F /  -8.3 °C 6.4 °F /  -14.2 °C 30.60 in /  1036.1 hPa WNW 6.0 mph /  9.7 km/h 9.0 mph /  14.5 km/h 62 % 0.00 in /  0 mm
04:56 16.8 °F /  -8.4 °C 6.4 °F /  -14.2 °C 30.61 in /  1036.5 hPa NW 4.0 mph /  6.4 km/h 7.0 mph /  11.3 km/h 63 % 0.00 in /  0 mm
05:04 16.8 °F /  -8.4 °C 6.4 °F /  -14.2 °C 30.61 in /  1036.5 hPa NW 5.0 mph /  8 km/h 9.0 mph /  14.5 km/h 63 % 0.00 in /  0 mm
05:10 16.8 °F /  -8.4 °C 6.4 °F /  -14.2 °C 30.61 in /  1036.5 hPa North 1.0 mph /  1.6 km/h 9.0 mph /  14.5 km/h 63 % 0.00 in /  0 mm
05:40 16.5 °F /  -8.6 °C 6.1 °F /  -14.4 °C 30.63 in /  1037.1 hPa West 6.0 mph /  9.7 km/h 9.0 mph /  14.5 km/h 63 % 0.00 in /  0 mm
05:50 16.4 °F /  -8.7 °C 6.0 °F /  -14.4 °C 30.63 in /  1037.1 hPa WNW 4.0 mph /  6.4 km/h 9.0 mph /  14.5 km/h 63 % 0.00 in /  0 mm
06:02 16.2 °F /  -8.8 °C 6.2 °F /  -14.3 °C 30.64 in /  1037.5 hPa NW 3.0 mph /  4.8 km/h 8.0 mph /  12.9 km/h 64 % 0.00 in /  0 mm
06:10 16.1 °F /  -8.8 °C 5.8 °F /  -14.6 °C 30.65 in /  1037.8 hPa NW 3.0 mph /  4.8 km/h 8.0 mph /  12.9 km/h 63 % 0.00 in /  0 mm
06:28 15.9 °F /  -8.9 °C 5.9 °F /  -14.5 °C 30.65 in /  1037.8 hPa North 2.0 mph /  3.2 km/h 8.0 mph /  12.9 km/h 64 % 0.00 in /  0 mm
06:45 15.8 °F /  -9 °C 5.8 °F /  -14.6 °C 30.66 in /  1038.1 hPa North 5.0 mph /  8 km/h 9.0 mph /  14.5 km/h 64 % 0.00 in /  0 mm
06:59 15.7 °F /  -9.1 °C 5.7 °F /  -14.6 °C 30.66 in /  1038.1 hPa North 3.0 mph /  4.8 km/h 8.0 mph /  12.9 km/h 64 % 0.00 in /  0 mm
07:05 15.7 °F /  -9.1 °C 5.7 °F /  -14.6 °C 30.66 in /  1038.1 hPa NW 2.0 mph /  3.2 km/h 8.0 mph /  12.9 km/h 64 % 0.00 in /  0 mm
07:14 15.5 °F /  -9.2 °C 5.5 °F /  -14.7 °C 30.66 in /  1038.1 hPa North 5.0 mph /  8 km/h 8.0 mph /  12.9 km/h 64 % 0.00 in /  0 mm
07:27 15.4 °F /  -9.2 °C 5.4 °F /  -14.8 °C 30.67 in /  1038.5 hPa WNW 3.0 mph /  4.8 km/h 8.0 mph /  12.9 km/h 64 % 0.00 in /  0 mm
07:35 15.4 °F /  -9.2 °C 5.8 °F /  -14.6 °C 30.67 in /  1038.5 hPa NW 3.0 mph /  4.8 km/h 8.0 mph /  12.9 km/h 65 % 0.00 in /  0 mm
07:52 15.4 °F /  -9.2 °C 5.4 °F /  -14.8 °C 30.68 in /  1038.8 hPa WNW 5.0 mph /  8 km/h 10.0 mph /  16.1 km/h 64 % 0.00 in /  0 mm
08:00 15.5 °F /  -9.2 °C 5.5 °F /  -14.7 °C 30.68 in /  1038.8 hPa ENE 1.0 mph /  1.6 km/h 10.0 mph /  16.1 km/h 64 % 0.00 in /  0 mm
08:24 15.7 °F /  -9.1 °C 5.4 °F /  -14.8 °C 30.69 in /  1039.2 hPa NW 1.0 mph /  1.6 km/h 10.0 mph /  16.1 km/h 63 % 0.00 in /  0 mm
08:42 16.1 °F /  -8.8 °C 5.4 °F /  -14.8 °C 30.70 in /  1039.5 hPa NW 4.0 mph /  6.4 km/h 12.0 mph /  19.3 km/h 62 % 0.00 in /  0 mm
08:47 16.3 °F /  -8.7 °C 5.6 °F /  -14.7 °C 30.70 in /  1039.5 hPa NW 1.0 mph /  1.6 km/h 9.0 mph /  14.5 km/h 62 % 0.00 in /  0 mm
08:59 16.6 °F /  -8.6 °C 5.5 °F /  -14.7 °C 30.71 in /  1039.8 hPa NW 1.0 mph /  1.6 km/h 9.0 mph /  14.5 km/h 61 % 0.00 in /  0 mm
09:08 16.8 °F /  -8.4 °C 5.3 °F /  -14.8 °C 30.72 in /  1040.2 hPa West 1.0 mph /  1.6 km/h 8.0 mph /  12.9 km/h 60 % 0.00 in /  0 mm
09:14 16.9 °F /  -8.4 °C 5.4 °F /  -14.8 °C 30.72 in /  1040.2 hPa WNW 5.0 mph /  8 km/h 7.0 mph /  11.3 km/h 60 % 0.00 in /  0 mm
09:20 17.1 °F /  -8.3 °C 5.3 °F /  -14.8 °C 30.73 in /  1040.5 hPa NW 4.0 mph /  6.4 km/h 9.0 mph /  14.5 km/h 59 % 0.00 in /  0 mm
09:31 17.4 °F /  -8.1 °C 5.2 °F /  -14.9 °C 30.73 in /  1040.5 hPa NW 8.0 mph /  12.9 km/h 9.0 mph /  14.5 km/h 58 % 0.00 in /  0 mm
09:54 17.9 °F /  -7.8 °C 5.2 °F /  -14.9 °C 30.73 in /  1040.5 hPa NW 4.0 mph /  6.4 km/h 10.0 mph /  16.1 km/h 57 % 0.00 in /  0 mm
10:02 18.1 °F /  -7.7 °C 5.0 °F /  -15 °C 30.74 in /  1040.9 hPa NW 5.0 mph /  8 km/h 10.0 mph /  16.1 km/h 56 % 0.00 in /  0 mm
10:09 18.3 °F /  -7.6 °C 5.2 °F /  -14.9 °C 30.73 in /  1040.5 hPa NW 6.0 mph /  9.7 km/h 10.0 mph /  16.1 km/h 56 % 0.00 in /  0 mm
10:14 18.5 °F /  -7.5 °C 5.4 °F /  -14.8 °C 30.73 in /  1040.5 hPa West 7.0 mph /  11.3 km/h 10.0 mph /  16.1 km/h 56 % 0.00 in /  0 mm
10:20 18.6 °F /  -7.4 °C 5.1 °F /  -14.9 °C 30.73 in /  1040.5 hPa NW 2.0 mph /  3.2 km/h 9.0 mph /  14.5 km/h 55 % 0.00 in /  0 mm
10:32 19.1 °F /  -7.2 °C 5.6 °F /  -14.7 °C 30.73 in /  1040.5 hPa WNW 4.0 mph /  6.4 km/h 8.0 mph /  12.9 km/h 55 % 0.00 in /  0 mm
10:38 19.3 °F /  -7.1 °C 5.8 °F /  -14.6 °C 30.73 in /  1040.5 hPa NW 3.0 mph /  4.8 km/h 8.0 mph /  12.9 km/h 55 % 0.00 in /  0 mm
10:45 19.5 °F /  -6.9 °C 5.9 °F /  -14.5 °C 30.73 in /  1040.5 hPa NW 1.0 mph /  1.6 km/h 8.0 mph /  12.9 km/h 55 % 0.00 in /  0 mm
10:55 19.7 °F /  -6.8 °C 6.1 °F /  -14.4 °C 30.72 in /  1040.2 hPa SW 6.0 mph /  9.7 km/h 7.0 mph /  11.3 km/h 55 % 0.00 in /  0 mm
11:07 20.0 °F /  -6.7 °C 6.0 °F /  -14.4 °C 30.72 in /  1040.2 hPa WNW 1.0 mph /  1.6 km/h 8.0 mph /  12.9 km/h 54 % 0.00 in /  0 mm
11:14 20.1 °F /  -6.6 °C 6.5 °F /  -14.2 °C 30.71 in /  1039.8 hPa WNW 2.0 mph /  3.2 km/h 8.0 mph /  12.9 km/h 55 % 0.00 in /  0 mm
11:20 20.5 °F /  -6.4 °C 6.9 °F /  -13.9 °C 30.71 in /  1039.8 hPa NW 1.0 mph /  1.6 km/h 8.0 mph /  12.9 km/h 55 % 0.00 in /  0 mm
11:27 20.8 °F /  -6.2 °C 6.3 °F /  -14.3 °C 30.70 in /  1039.5 hPa NNE 1.0 mph /  1.6 km/h 7.0 mph /  11.3 km/h 53 % 0.00 in /  0 mm
11:40 21.1 °F /  -6.1 °C 6.6 °F /  -14.1 °C 30.70 in /  1039.5 hPa NNE 3.0 mph /  4.8 km/h 7.0 mph /  11.3 km/h 53 % 0.00 in /  0 mm
12:02 22.0 °F /  -5.6 °C 6.6 °F /  -14.1 °C 30.69 in /  1039.2 hPa Calm   8.0 mph /  12.9 km/h 51 % 0.00 in /  0 mm
12:09 22.0 °F /  -5.6 °C 6.6 °F /  -14.1 °C 30.69 in /  1039.2 hPa WNW 1.0 mph /  1.6 km/h 8.0 mph /  12.9 km/h 51 % 0.00 in /  0 mm
12:17 22.0 °F /  -5.6 °C 7.0 °F /  -13.9 °C 30.69 in /  1039.2 hPa NE 1.0 mph /  1.6 km/h 8.0 mph /  12.9 km/h 52 % 0.00 in /  0 mm
12:23 22.3 °F /  -5.4 °C 7.3 °F /  -13.7 °C 30.69 in /  1039.2 hPa NW 2.0 mph /  3.2 km/h 8.0 mph /  12.9 km/h 52 % 0.00 in /  0 mm
12:31 22.4 °F /  -5.3 °C 6.9 °F /  -13.9 °C 30.68 in /  1038.8 hPa West 1.0 mph /  1.6 km/h 6.0 mph /  9.7 km/h 51 % 0.00 in /  0 mm
12:43 22.7 °F /  -5.2 °C 7.2 °F /  -13.8 °C 30.68 in /  1038.8 hPa NNE 2.0 mph /  3.2 km/h 7.0 mph /  11.3 km/h 51 % 0.00 in /  0 mm
12:50 22.9 °F /  -5.1 °C 6.5 °F /  -14.2 °C 30.68 in /  1038.8 hPa North 3.0 mph /  4.8 km/h 7.0 mph /  11.3 km/h 49 % 0.00 in /  0 mm
12:56 23.2 °F /  -4.9 °C 6.8 °F /  -14 °C 30.68 in /  1038.8 hPa ESE 1.0 mph /  1.6 km/h 7.0 mph /  11.3 km/h 49 % 0.00 in /  0 mm
13:14 23.6 °F /  -4.7 °C 7.1 °F /  -13.8 °C 30.67 in /  1038.5 hPa NW 1.0 mph /  1.6 km/h 7.0 mph /  11.3 km/h 49 % 0.00 in /  0 mm
13:20 23.8 °F /  -4.6 °C 6.9 °F /  -13.9 °C 30.67 in /  1038.5 hPa West 1.0 mph /  1.6 km/h 8.0 mph /  12.9 km/h 48 % 0.00 in /  0 mm
13:30 23.8 °F /  -4.6 °C 6.4 °F /  -14.2 °C 30.67 in /  1038.5 hPa NW 7.0 mph /  11.3 km/h 8.0 mph /  12.9 km/h 47 % 0.00 in /  0 mm
13:37 23.9 °F /  -4.5 °C 6.5 °F /  -14.2 °C 30.67 in /  1038.5 hPa Calm   7.0 mph /  11.3 km/h 47 % 0.00 in /  0 mm
13:51 24.2 °F /  -4.3 °C 6.3 °F /  -14.3 °C 30.66 in /  1038.1 hPa East 1.0 mph /  1.6 km/h 12.0 mph /  19.3 km/h 46 % 0.00 in /  0 mm
14:02 24.7 °F /  -4.1 °C 6.7 °F /  -14.1 °C 30.66 in /  1038.1 hPa Calm   12.0 mph /  19.3 km/h 46 % 0.00 in /  0 mm
14:11 24.6 °F /  -4.1 °C 6.1 °F /  -14.4 °C 30.65 in /  1037.8 hPa Calm   6.0 mph /  9.7 km/h 45 % 0.00 in /  0 mm
14:20 24.5 °F /  -4.2 °C 6.5 °F /  -14.2 °C 30.65 in /  1037.8 hPa WNW 3.0 mph /  4.8 km/h 7.0 mph /  11.3 km/h 46 % 0.00 in /  0 mm
14:28 24.6 °F /  -4.1 °C 6.6 °F /  -14.1 °C 30.66 in /  1038.1 hPa WNW 1.0 mph /  1.6 km/h 7.0 mph /  11.3 km/h 46 % 0.00 in /  0 mm
14:38 24.7 °F /  -4.1 °C 6.7 °F /  -14.1 °C 30.66 in /  1038.1 hPa Calm   7.0 mph /  11.3 km/h 46 % 0.00 in /  0 mm
14:44 24.8 °F /  -4 °C 6.3 °F /  -14.3 °C 30.66 in /  1038.1 hPa ENE 3.0 mph /  4.8 km/h 7.0 mph /  11.3 km/h 45 % 0.00 in /  0 mm
14:51 24.9 °F /  -3.9 °C 6.4 °F /  -14.2 °C 30.66 in /  1038.1 hPa WNW 3.0 mph /  4.8 km/h 7.0 mph /  11.3 km/h 45 % 0.00 in /  0 mm
15:03 25.1 °F /  -3.8 °C 6.6 °F /  -14.1 °C 30.66 in /  1038.1 hPa Calm   7.0 mph /  11.3 km/h 45 % 0.00 in /  0 mm
15:09 25.2 °F /  -3.8 °C 6.7 °F /  -14.1 °C 30.65 in /  1037.8 hPa WNW 5.0 mph /  8 km/h 7.0 mph /  11.3 km/h 45 % 0.00 in /  0 mm
15:20 25.2 °F /  -3.8 °C 6.2 °F /  -14.3 °C 30.66 in /  1038.1 hPa Calm   7.0 mph /  11.3 km/h 44 % 0.00 in /  0 mm
15:26 25.2 °F /  -3.8 °C 6.2 °F /  -14.3 °C 30.66 in /  1038.1 hPa NE 1.0 mph /  1.6 km/h 6.0 mph /  9.7 km/h 44 % 0.00 in /  0 mm
15:32 25.2 °F /  -3.8 °C 6.2 °F /  -14.3 °C 30.66 in /  1038.1 hPa NW 2.0 mph /  3.2 km/h 6.0 mph /  9.7 km/h 44 % 0.00 in /  0 mm
15:40 25.1 °F /  -3.8 °C 6.6 °F /  -14.1 °C 30.66 in /  1038.1 hPa NW 2.0 mph /  3.2 km/h 5.0 mph /  8 km/h 45 % 0.00 in /  0 mm
16:00 25.2 °F /  -3.8 °C 6.2 °F /  -14.3 °C 30.67 in /  1038.5 hPa East 2.0 mph /  3.2 km/h 5.0 mph /  8 km/h 44 % 0.00 in /  0 mm
16:11 25.1 °F /  -3.8 °C 6.1 °F /  -14.4 °C 30.67 in /  1038.5 hPa Calm   5.0 mph /  8 km/h 44 % 0.00 in /  0 mm
16:18 25.0 °F /  -3.9 °C 6.5 °F /  -14.2 °C 30.67 in /  1038.5 hPa Calm   5.0 mph /  8 km/h 45 % 0.00 in /  0 mm
16:24 24.9 °F /  -3.9 °C 6.4 °F /  -14.2 °C 30.67 in /  1038.5 hPa Calm   5.0 mph /  8 km/h 45 % 0.00 in /  0 mm
16:33 24.7 °F /  -4.1 °C 5.7 °F /  -14.6 °C 30.67 in /  1038.5 hPa Calm   7.0 mph /  11.3 km/h 44 % 0.00 in /  0 mm
16:39 24.6 °F /  -4.1 °C 6.1 °F /  -14.4 °C 30.67 in /  1038.5 hPa WNW 2.0 mph /  3.2 km/h 7.0 mph /  11.3 km/h 45 % 0.00 in /  0 mm
16:46 24.5 °F /  -4.2 °C 5.5 °F /  -14.7 °C 30.67 in /  1038.5 hPa Calm   5.0 mph /  8 km/h 44 % 0.00 in /  0 mm
16:51 24.4 °F /  -4.2 °C 6.0 °F /  -14.4 °C 30.67 in /  1038.5 hPa Calm   5.0 mph /  8 km/h 45 % 0.00 in /  0 mm
16:57 24.2 °F /  -4.3 °C 6.3 °F /  -14.3 °C 30.67 in /  1038.5 hPa NW 2.0 mph /  3.2 km/h 4.0 mph /  6.4 km/h 46 % 0.00 in /  0 mm
17:04 24.1 °F /  -4.4 °C 6.2 °F /  -14.3 °C 30.66 in /  1038.1 hPa Calm   4.0 mph /  6.4 km/h 46 % 0.00 in /  0 mm
17:20 23.4 °F /  -4.8 °C 6.0 °F /  -14.4 °C 30.66 in /  1038.1 hPa Calm   4.0 mph /  6.4 km/h 47 % 0.00 in /  0 mm
17:35 23.1 °F /  -4.9 °C 6.2 °F /  -14.3 °C 30.66 in /  1038.1 hPa Calm   5.0 mph /  8 km/h 48 % 0.00 in /  0 mm
17:44 23.1 °F /  -4.9 °C 6.2 °F /  -14.3 °C 30.66 in /  1038.1 hPa North 2.0 mph /  3.2 km/h 5.0 mph /  8 km/h 48 % 0.00 in /  0 mm
17:51 22.9 °F /  -5.1 °C 6.5 °F /  -14.2 °C 30.66 in /  1038.1 hPa Calm   4.0 mph /  6.4 km/h 49 % 0.00 in /  0 mm
18:06 22.5 °F /  -5.3 °C 7.0 °F /  -13.9 °C 30.66 in /  1038.1 hPa NW 2.0 mph /  3.2 km/h 6.0 mph /  9.7 km/h 51 % 0.00 in /  0 mm
18:12 22.4 °F /  -5.3 °C 6.9 °F /  -13.9 °C 30.66 in /  1038.1 hPa WNW 2.0 mph /  3.2 km/h 6.0 mph /  9.7 km/h 51 % 0.00 in /  0 mm
18:25 22.1 °F /  -5.5 °C 7.1 °F /  -13.8 °C 30.67 in /  1038.5 hPa Calm   5.0 mph /  8 km/h 52 % 0.00 in /  0 mm
18:45 21.6 °F /  -5.8 °C 7.1 °F /  -13.8 °C 30.68 in /  1038.8 hPa Calm   3.0 mph /  4.8 km/h 53 % 0.00 in /  0 mm
18:51 21.5 °F /  -5.8 °C 7.4 °F /  -13.7 °C 30.68 in /  1038.8 hPa Calm   4.0 mph /  6.4 km/h 54 % 0.00 in /  0 mm
18:57 21.5 °F /  -5.8 °C 7.4 °F /  -13.7 °C 30.68 in /  1038.8 hPa Calm   4.0 mph /  6.4 km/h 54 % 0.00 in /  0 mm
19:18 21.0 °F /  -6.1 °C 7.8 °F /  -13.4 °C 30.69 in /  1039.2 hPa Calm   5.0 mph /  8 km/h 56 % 0.00 in /  0 mm
19:23 20.9 °F /  -6.2 °C 7.7 °F /  -13.5 °C 30.70 in /  1039.5 hPa Calm   5.0 mph /  8 km/h 56 % 0.00 in /  0 mm
19:55 20.3 °F /  -6.5 °C 7.9 °F /  -13.4 °C 30.70 in /  1039.5 hPa Calm   3.0 mph /  4.8 km/h 58 % 0.00 in /  0 mm
20:03 20.2 °F /  -6.6 °C 7.8 °F /  -13.4 °C 30.70 in /  1039.5 hPa Calm   3.0 mph /  4.8 km/h 58 % 0.00 in /  0 mm
20:09 19.9 °F /  -6.7 °C 7.5 °F /  -13.6 °C 30.70 in /  1039.5 hPa Calm   3.0 mph /  4.8 km/h 58 % 0.00 in /  0 mm
20:17 19.8 °F /  -6.8 °C 7.4 °F /  -13.7 °C 30.70 in /  1039.5 hPa Calm   2.0 mph /  3.2 km/h 58 % 0.00 in /  0 mm
20:29 19.6 °F /  -6.9 °C 7.6 °F /  -13.6 °C 30.70 in /  1039.5 hPa Calm   2.0 mph /  3.2 km/h 59 % 0.00 in /  0 mm
20:42 19.4 °F /  -7 °C 7.8 °F /  -13.4 °C 30.69 in /  1039.2 hPa Calm   2.0 mph /  3.2 km/h 60 % 0.00 in /  0 mm
20:52 19.2 °F /  -7.1 °C 7.6 °F /  -13.6 °C 30.68 in /  1038.8 hPa Calm   2.0 mph /  3.2 km/h 60 % 0.00 in /  0 mm
20:59 19.2 °F /  -7.1 °C 8.0 °F /  -13.3 °C 30.68 in /  1038.8 hPa Calm   2.0 mph /  3.2 km/h 61 % 0.00 in /  0 mm
21:16 19.2 °F /  -7.1 °C 8.3 °F /  -13.2 °C 30.68 in /  1038.8 hPa Calm   2.0 mph /  3.2 km/h 62 % 0.00 in /  0 mm
21:24 19.1 °F /  -7.2 °C 8.3 °F /  -13.2 °C 30.68 in /  1038.8 hPa Calm   3.0 mph /  4.8 km/h 62 % 0.00 in /  0 mm
21:31 19.2 °F /  -7.1 °C 8.7 °F /  -12.9 °C 30.68 in /  1038.8 hPa Calm   3.0 mph /  4.8 km/h 63 % 0.00 in /  0 mm
21:38 19.4 °F /  -7 °C 8.5 °F /  -13.1 °C 30.69 in /  1039.2 hPa Calm   3.0 mph /  4.8 km/h 62 % 0.00 in /  0 mm
21:48 19.7 °F /  -6.8 °C 8.8 °F /  -12.9 °C 30.69 in /  1039.2 hPa Calm   3.0 mph /  4.8 km/h 62 % 0.00 in /  0 mm
22:06 19.8 °F /  -6.8 °C 8.6 °F /  -13 °C 30.70 in /  1039.5 hPa Calm   2.0 mph /  3.2 km/h 61 % 0.00 in /  0 mm
22:13 19.8 °F /  -6.8 °C 8.6 °F /  -13 °C 30.71 in /  1039.8 hPa Calm   2.0 mph /  3.2 km/h 61 % 0.00 in /  0 mm
22:20 19.8 °F /  -6.8 °C 8.6 °F /  -13 °C 30.70 in /  1039.5 hPa Calm   1.0 mph /  1.6 km/h 61 % 0.00 in /  0 mm
22:32 19.5 °F /  -6.9 °C 9.0 °F /  -12.8 °C 30.69 in /  1039.2 hPa Calm   2.0 mph /  3.2 km/h 63 % 0.00 in /  0 mm
22:46 19.4 °F /  -7 °C 8.9 °F /  -12.8 °C 30.69 in /  1039.2 hPa Calm   2.0 mph /  3.2 km/h 63 % 0.00 in /  0 mm
22:52 19.5 °F /  -6.9 °C 9.0 °F /  -12.8 °C 30.69 in /  1039.2 hPa Calm   3.0 mph /  4.8 km/h 63 % 0.00 in /  0 mm
22:57 19.5 °F /  -6.9 °C 9.0 °F /  -12.8 °C 30.69 in /  1039.2 hPa Calm   3.0 mph /  4.8 km/h 63 % 0.00 in /  0 mm
23:25 19.1 °F /  -7.2 °C 9.0 °F /  -12.8 °C 30.69 in /  1039.2 hPa Calm   1.0 mph /  1.6 km/h 64 % 0.00 in /  0 mm
23:33 18.8 °F /  -7.3 °C 8.7 °F /  -12.9 °C 30.69 in /  1039.2 hPa Calm   1.0 mph /  1.6 km/h 64 % 0.00 in /  0 mm
23:39 18.6 °F /  -7.4 °C 8.8 °F /  -12.9 °C 30.69 in /  1039.2 hPa Calm   1.0 mph /  1.6 km/h 65 % 0.00 in /  0 mm
MarylandWx.com
Compliments of Weather Underground - 5.75 mb